createdAt,value
2022-10-15T00:02:09.696Z,10.50
2022-10-15T00:04:43.571Z,10.50
2022-10-15T00:07:17.989Z,10.40
2022-10-15T00:09:55.131Z,10.40
2022-10-15T00:12:30.121Z,10.70
2022-10-15T00:15:05.441Z,10.30
2022-10-15T00:17:39.549Z,10.30
2022-10-15T00:20:14.105Z,10.30
2022-10-15T00:22:48.398Z,10.30
2022-10-15T00:25:25.716Z,10.20
2022-10-15T00:27:59.329Z,10.20
2022-10-15T00:30:34.005Z,10.20
2022-10-15T00:33:08.668Z,10.20
2022-10-15T00:35:42.487Z,10.40
2022-10-15T00:38:16.314Z,10.50
2022-10-15T00:40:52.976Z,10.10
2022-10-15T00:43:41.391Z,10.20
2022-10-15T00:46:21.349Z,10.10
2022-10-15T00:48:58.184Z,10.10
2022-10-15T00:51:36.526Z,10.20
2022-10-15T00:54:11.789Z,10.30
2022-10-15T00:56:49.816Z,10.20
2022-10-15T00:59:25.286Z,10.10
2022-10-15T01:02:00.846Z,10.20
2022-10-15T01:04:36.052Z,10.20
2022-10-15T01:07:10.250Z,10.20
2022-10-15T01:09:46.700Z,10.10
2022-10-15T01:12:36.465Z,10.20
2022-10-15T01:15:11.599Z,10.20
2022-10-15T01:17:47.623Z,10.20
2022-10-15T01:20:42.476Z,10.40
2022-10-15T01:23:31.057Z,10.10
2022-10-15T01:26:11.366Z,10.10
2022-10-15T01:28:50.873Z,10.10
2022-10-15T01:31:35.466Z,10.00
2022-10-15T01:34:11.830Z,10.00
2022-10-15T01:36:49.343Z,9.90
2022-10-15T01:39:25.576Z,9.90
2022-10-15T01:42:01.606Z,9.90
2022-10-15T01:44:38.299Z,9.80
2022-10-15T01:47:45.963Z,9.80
2022-10-15T01:50:20.510Z,9.80
2022-10-15T01:52:56.106Z,9.80
2022-10-15T01:55:30.300Z,9.80
2022-10-15T01:58:08.460Z,9.80
2022-10-15T02:00:44.713Z,9.80
2022-10-15T02:03:22.761Z,9.70
2022-10-15T02:05:59.710Z,9.80
2022-10-15T02:08:37.615Z,9.70
2022-10-15T02:11:13.065Z,9.70
2022-10-15T02:13:56.077Z,9.60
2022-10-15T02:16:31.934Z,9.60
2022-10-15T02:19:10.964Z,9.60
2022-10-15T02:21:46.505Z,9.60
2022-10-15T02:24:22.847Z,9.60
2022-10-15T02:26:58.738Z,9.60
2022-10-15T02:29:36.199Z,9.50
2022-10-15T02:32:10.391Z,9.50
2022-10-15T02:34:47.653Z,9.60
2022-10-15T02:37:18.770Z,9.90
2022-10-15T02:39:53.659Z,9.60
2022-10-15T02:42:27.406Z,9.60
2022-10-15T02:45:01.403Z,9.60
2022-10-15T02:47:35.361Z,9.60
2022-10-15T02:50:14.275Z,9.50
2022-10-15T02:52:48.539Z,9.60
2022-10-15T02:55:22.343Z,9.60
2022-10-15T02:57:56.636Z,9.60
2022-10-15T03:00:30.811Z,9.60
2022-10-15T03:03:05.781Z,9.60
2022-10-15T03:05:43.258Z,9.60
2022-10-15T03:08:17.627Z,10.00
2022-10-15T03:10:52.321Z,9.60
2022-10-15T03:13:27.312Z,9.70
2022-10-15T03:16:01.856Z,9.70
2022-10-15T03:18:39.729Z,9.60
2022-10-15T03:21:19.630Z,9.60
2022-10-15T03:23:54.436Z,9.60
2022-10-15T03:26:31.826Z,9.60
2022-10-15T03:29:07.034Z,9.60
2022-10-15T03:31:46.243Z,9.70
2022-10-15T03:34:20.790Z,9.60
2022-10-15T03:36:55.529Z,9.60
2022-10-15T03:39:33.315Z,9.70
2022-10-15T03:42:10.478Z,9.70
2022-10-15T03:44:52.399Z,9.70
2022-10-15T03:47:27.877Z,9.80
2022-10-15T03:50:01.962Z,9.70
2022-10-15T03:52:37.374Z,9.70
2022-10-15T03:55:14.308Z,10.10
2022-10-15T03:57:50.402Z,9.70
2022-10-15T04:00:25.385Z,9.70
2022-10-15T04:03:04.348Z,9.80
2022-10-15T04:05:38.632Z,9.80
2022-10-15T04:08:16.497Z,10.00
2022-10-15T04:10:54.451Z,9.80
2022-10-15T04:13:28.850Z,9.80
2022-10-15T04:16:03.231Z,9.90
2022-10-15T04:18:38.736Z,9.90
2022-10-15T04:21:13.682Z,10.00
2022-10-15T04:23:52.075Z,9.90
2022-10-15T04:26:36.613Z,9.90
2022-10-15T04:29:10.527Z,10.00
2022-10-15T04:31:44.685Z,9.90
2022-10-15T04:34:18.738Z,9.90
2022-10-15T04:36:52.675Z,9.90
2022-10-15T04:39:28.794Z,9.90
2022-10-15T04:42:05.974Z,9.90
2022-10-15T04:44:41.669Z,10.00
2022-10-15T04:47:16.437Z,10.00
2022-10-15T04:49:59.687Z,10.00
2022-10-15T04:52:42.597Z,10.00
2022-10-15T04:55:19.653Z,10.00
2022-10-15T04:57:57.221Z,10.10
2022-10-15T05:00:36.423Z,10.00
2022-10-15T05:03:42.411Z,10.10
2022-10-15T05:06:20.165Z,10.00
2022-10-15T05:08:54.832Z,10.10
2022-10-15T05:11:33.526Z,10.10
2022-10-15T05:14:10.794Z,10.10
2022-10-15T05:16:47.299Z,10.10
2022-10-15T05:19:21.747Z,10.10
2022-10-15T05:21:58.768Z,10.10
2022-10-15T05:24:34.619Z,10.10
2022-10-15T05:27:34.367Z,10.10
2022-10-15T05:30:14.726Z,10.10
2022-10-15T05:32:56.116Z,10.10
2022-10-15T05:35:31.837Z,10.10
2022-10-15T05:38:09.492Z,10.20
2022-10-15T05:40:44.139Z,10.20
2022-10-15T05:43:25.503Z,10.10
2022-10-15T05:46:03.591Z,10.20
2022-10-15T05:48:40.209Z,10.10
2022-10-15T05:51:17.528Z,10.20
2022-10-15T05:53:54.790Z,10.30
2022-10-15T05:56:31.413Z,10.20
2022-10-15T05:59:05.539Z,10.60
2022-10-15T06:01:44.618Z,10.30
2022-10-15T06:04:21.496Z,10.20
2022-10-15T06:06:56.979Z,10.30
2022-10-15T06:09:33.726Z,10.30
2022-10-15T06:12:15.238Z,10.30
2022-10-15T06:14:50.421Z,10.30
2022-10-15T06:17:29.213Z,10.40
2022-10-15T06:20:03.899Z,10.70
2022-10-15T06:22:38.946Z,10.50
2022-10-15T06:25:13.778Z,10.50
2022-10-15T06:27:48.293Z,10.50
2022-10-15T06:30:23.409Z,10.60
2022-10-15T06:33:00.649Z,10.60
2022-10-15T06:35:35.939Z,10.70
2022-10-15T06:38:10.817Z,10.80
2022-10-15T06:40:46.241Z,10.80
2022-10-15T06:43:21.980Z,10.80
2022-10-15T06:45:59.007Z,10.90
2022-10-15T06:48:36.570Z,11.10
2022-10-15T06:51:11.054Z,10.90
2022-10-15T06:53:46.492Z,10.90
2022-10-15T06:56:20.835Z,11.30
2022-10-15T06:58:56.710Z,11.00
2022-10-15T07:01:31.235Z,11.10
2022-10-15T07:04:11.431Z,11.10
2022-10-15T07:06:48.024Z,11.20
2022-10-15T07:09:24.596Z,11.30
2022-10-15T07:11:58.958Z,11.40
2022-10-15T07:14:40.065Z,11.50
2022-10-15T07:17:18.328Z,11.70
2022-10-15T07:19:55.383Z,11.90
2022-10-15T07:22:30.259Z,12.10
2022-10-15T07:25:05.405Z,12.30
2022-10-15T07:27:41.613Z,12.30
2022-10-15T07:30:16.073Z,12.30
2022-10-15T07:32:51.461Z,12.70
2022-10-15T07:35:28.940Z,12.80
2022-10-15T07:38:04.760Z,12.60
2022-10-15T07:40:39.855Z,12.80
2022-10-15T07:43:14.703Z,12.80
2022-10-15T07:45:52.446Z,12.90
2022-10-15T07:48:30.562Z,13.10
2022-10-15T07:51:02.965Z,13.10
2022-10-15T07:53:40.828Z,13.20
2022-10-15T07:56:16.250Z,13.30
2022-10-15T07:58:52.184Z,13.60
2022-10-15T08:01:28.027Z,13.50
2022-10-15T08:04:02.954Z,13.40
2022-10-15T08:06:37.919Z,13.70
2022-10-15T08:09:16.367Z,13.70
2022-10-15T08:11:54.283Z,13.80
2022-10-15T08:14:32.471Z,13.80
2022-10-15T08:17:07.678Z,13.90
2022-10-15T08:19:42.596Z,14.20
2022-10-15T08:22:19.338Z,14.10
2022-10-15T08:24:58.563Z,14.20
2022-10-15T08:27:35.416Z,14.20
2022-10-15T08:30:16.615Z,14.30
2022-10-15T08:32:55.818Z,14.40
2022-10-15T08:35:36.074Z,14.40
2022-10-15T08:38:14.693Z,14.50
2022-10-15T08:40:56.457Z,14.50
2022-10-15T08:43:34.587Z,14.50
2022-10-15T08:46:12.826Z,14.50
2022-10-15T08:48:49.863Z,14.50
2022-10-15T08:51:27.279Z,14.40
2022-10-15T08:54:01.906Z,14.40
2022-10-15T08:56:48.582Z,14.40
2022-10-15T08:59:28.334Z,14.50
2022-10-15T09:02:07.379Z,14.40
2022-10-15T09:04:44.952Z,14.20
2022-10-15T09:07:23.431Z,14.30
2022-10-15T09:10:11.685Z,14.30
2022-10-15T09:12:52.246Z,14.20
2022-10-15T09:15:27.950Z,14.20
2022-10-15T09:18:03.128Z,14.40
2022-10-15T09:20:40.746Z,14.30
2022-10-15T09:23:19.246Z,14.30
2022-10-15T09:25:57.494Z,14.40
2022-10-15T09:28:42.565Z,14.50
2022-10-15T09:31:20.013Z,14.60
2022-10-15T09:33:57.423Z,14.50
2022-10-15T09:36:38.885Z,14.50
2022-10-15T09:39:13.877Z,14.50
2022-10-15T09:41:53.928Z,14.60
2022-10-15T09:44:39.261Z,14.60
2022-10-15T09:47:21.019Z,14.60
2022-10-15T09:49:56.504Z,14.70
2022-10-15T09:52:43.158Z,14.70
2022-10-15T09:55:23.889Z,14.80
2022-10-15T09:58:03.302Z,15.00
2022-10-15T10:01:06.343Z,14.90
2022-10-15T10:03:52.611Z,14.90
2022-10-15T10:06:28.955Z,15.00
2022-10-15T10:09:07.816Z,15.00
2022-10-15T10:11:50.783Z,15.10
2022-10-15T10:14:30.843Z,15.20
2022-10-15T10:17:18.877Z,15.20
2022-10-15T10:20:16.778Z,15.20
2022-10-15T10:22:53.864Z,15.20
2022-10-15T10:25:35.381Z,15.20
2022-10-15T10:28:19.713Z,15.30
2022-10-15T10:31:04.036Z,15.30
2022-10-15T10:33:47.899Z,15.40
2022-10-15T10:36:24.525Z,15.30
2022-10-15T10:39:01.997Z,15.30
2022-10-15T10:41:52.919Z,15.30
2022-10-15T10:44:32.721Z,15.30
2022-10-15T10:47:05.385Z,15.40
2022-10-15T10:49:44.009Z,15.30
2022-10-15T10:52:29.648Z,15.40
2022-10-15T10:54:59.273Z,15.40
2022-10-15T10:57:45.449Z,15.40
2022-10-15T11:00:23.510Z,15.50
2022-10-15T11:02:58.051Z,15.50
2022-10-15T11:05:40.266Z,15.50
2022-10-15T11:08:20.805Z,15.60
2022-10-15T11:10:59.492Z,15.60
2022-10-15T11:13:44.590Z,15.60
2022-10-15T11:16:26.515Z,15.70
2022-10-15T11:19:18.840Z,15.80
2022-10-15T11:22:15.830Z,15.90
2022-10-15T11:24:48.916Z,16.00
2022-10-15T11:27:42.153Z,16.00
2022-10-15T11:30:31.034Z,16.10
2022-10-15T11:33:13.730Z,16.20
2022-10-15T11:35:54.018Z,16.30
2022-10-15T11:38:36.780Z,16.40
2022-10-15T11:41:29.506Z,16.40
2022-10-15T11:44:34.970Z,16.50
2022-10-15T11:47:22.660Z,16.60
2022-10-15T11:50:03.903Z,16.60
2022-10-15T11:52:58.407Z,16.70
2022-10-15T11:55:29.943Z,16.70
2022-10-15T11:58:22.169Z,16.80
2022-10-15T12:00:54.136Z,16.90
2022-10-15T12:03:30.386Z,17.00
2022-10-15T12:06:08.863Z,17.10
2022-10-15T12:08:49.355Z,17.10
2022-10-15T12:11:31.413Z,17.20
2022-10-15T12:14:12.058Z,17.30
2022-10-15T12:16:51.726Z,17.30
2022-10-15T12:19:29.143Z,17.30
2022-10-15T12:22:11.812Z,17.30
2022-10-15T12:24:56.609Z,17.30
2022-10-15T12:27:34.786Z,17.30
2022-10-15T12:30:25.182Z,17.30
2022-10-15T12:33:00.709Z,17.30
2022-10-15T12:35:39.134Z,17.40
2022-10-15T12:38:15.939Z,17.40
2022-10-15T12:40:51.032Z,17.30
2022-10-15T12:43:25.737Z,17.40
2022-10-15T12:46:03.541Z,17.40
2022-10-15T12:48:41.948Z,17.30
2022-10-15T12:51:41.724Z,17.50
2022-10-15T12:54:38.030Z,17.40
2022-10-15T12:57:42.760Z,17.40
2022-10-15T13:00:16.742Z,17.40
2022-10-15T13:02:59.492Z,17.50
2022-10-15T13:05:35.086Z,17.40
2022-10-15T13:08:16.600Z,17.40
2022-10-15T13:10:53.311Z,17.50
2022-10-15T13:13:29.645Z,17.60
2022-10-15T13:16:04.472Z,17.50
2022-10-15T13:18:42.452Z,17.50
2022-10-15T13:21:16.810Z,17.40
2022-10-15T13:23:51.588Z,17.50
2022-10-15T13:26:28.126Z,17.40
2022-10-15T13:29:03.017Z,17.40
2022-10-15T13:31:39.860Z,17.40
2022-10-15T13:34:21.625Z,17.40
2022-10-15T13:36:55.901Z,17.30
2022-10-15T13:42:27.531Z,17.40
2022-10-15T13:45:04.554Z,17.40
2022-10-15T13:47:42.277Z,17.20
2022-10-15T13:50:27.606Z,17.40
2022-10-15T13:53:00.928Z,17.30
2022-10-15T13:55:37.007Z,17.30
2022-10-15T13:58:26.483Z,17.30
2022-10-15T14:01:03.085Z,17.20
2022-10-15T14:03:39.115Z,17.20
2022-10-15T14:06:20.510Z,17.20
2022-10-15T14:08:55.367Z,17.10
2022-10-15T14:11:29.785Z,17.10
2022-10-15T14:14:03.947Z,17.10
2022-10-15T14:16:42.022Z,17.00
2022-10-15T14:19:12.870Z,17.00
2022-10-15T14:21:52.659Z,16.90
2022-10-15T14:24:28.778Z,16.90
2022-10-15T14:27:07.853Z,16.90
2022-10-15T14:29:45.821Z,16.80
2022-10-15T14:32:47.932Z,16.80
2022-10-15T14:35:27.102Z,16.80
2022-10-15T14:38:07.423Z,16.80
2022-10-15T14:40:41.724Z,16.70
2022-10-15T14:43:19.655Z,16.70
2022-10-15T14:46:00.778Z,16.70
2022-10-15T14:48:36.226Z,16.60
2022-10-15T14:51:15.766Z,16.40
2022-10-15T14:53:52.871Z,16.60
2022-10-15T14:56:28.604Z,16.60
2022-10-15T14:59:04.307Z,16.60
2022-10-15T15:01:38.779Z,16.50
2022-10-15T15:04:40.832Z,16.60
2022-10-15T15:07:19.761Z,16.50
2022-10-15T15:09:59.295Z,16.40
2022-10-15T15:12:34.403Z,16.40
2022-10-15T15:15:12.353Z,16.50
2022-10-15T15:17:46.889Z,16.40
2022-10-15T15:20:24.114Z,16.40
2022-10-15T15:22:59.169Z,16.30
2022-10-15T15:25:38.387Z,16.50
2022-10-15T15:28:20.702Z,16.40
2022-10-15T15:30:59.549Z,16.30
2022-10-15T15:33:36.771Z,16.30
2022-10-15T15:36:17.664Z,16.20
2022-10-15T15:39:00.087Z,16.20
2022-10-15T15:41:37.913Z,16.10
2022-10-15T15:44:15.816Z,16.20
2022-10-15T15:46:55.473Z,16.20
2022-10-15T15:49:29.150Z,16.10
2022-10-15T15:52:09.132Z,16.20
2022-10-15T15:54:43.814Z,16.10
2022-10-15T15:57:20.866Z,16.10
2022-10-15T15:59:54.847Z,16.10
2022-10-15T16:02:28.724Z,16.10
2022-10-15T16:05:02.902Z,16.10
2022-10-15T16:07:36.773Z,16.10
2022-10-15T16:10:12.825Z,16.00
2022-10-15T16:12:50.183Z,16.10
2022-10-15T16:15:24.606Z,16.00
2022-10-15T16:17:58.507Z,16.10
2022-10-15T16:20:32.444Z,16.10
2022-10-15T16:23:06.472Z,16.00
2022-10-15T16:25:40.469Z,15.80
2022-10-15T16:28:17.103Z,16.10
2022-10-15T16:30:51.937Z,16.10
2022-10-15T16:33:26.844Z,16.10
2022-10-15T16:36:01.061Z,16.00
2022-10-15T16:38:36.046Z,16.00
2022-10-15T16:41:10.565Z,16.00
2022-10-15T16:43:47.482Z,16.10
2022-10-15T16:46:21.582Z,15.90
2022-10-15T16:48:55.996Z,15.90
2022-10-15T16:54:26.043Z,15.90
2022-10-15T16:57:00.539Z,15.90
2022-10-15T16:59:37.265Z,15.80
2022-10-15T17:02:12.206Z,15.90
2022-10-15T17:04:47.060Z,15.80
2022-10-15T17:07:21.614Z,15.80
2022-10-15T17:09:55.594Z,15.80
2022-10-15T17:12:30.681Z,16.00
2022-10-15T17:15:07.886Z,15.80
2022-10-15T17:17:41.574Z,15.80
2022-10-15T17:20:15.756Z,15.80
2022-10-15T17:22:49.879Z,15.80
2022-10-15T17:25:26.369Z,15.80
2022-10-15T17:28:00.636Z,15.80
2022-10-15T17:30:37.684Z,15.80
2022-10-15T17:33:11.592Z,15.80
2022-10-15T17:35:45.629Z,15.80
2022-10-15T17:38:21.931Z,15.70
2022-10-15T17:40:56.790Z,15.70
2022-10-15T17:43:31.305Z,15.70
2022-10-15T17:46:12.931Z,15.70
2022-10-15T17:48:48.337Z,15.70
2022-10-15T17:51:23.532Z,15.70
2022-10-15T17:54:03.001Z,15.70
2022-10-15T17:56:38.759Z,15.70
2022-10-15T17:59:13.896Z,15.70
2022-10-15T18:02:00.125Z,15.70
2022-10-15T18:04:34.613Z,15.70
2022-10-15T18:07:08.582Z,15.60
2022-10-15T18:09:43.051Z,15.60
2022-10-15T18:12:17.730Z,15.70
2022-10-15T18:14:52.081Z,15.60
2022-10-15T18:17:33.409Z,15.70
2022-10-15T18:20:08.644Z,15.70
2022-10-15T18:22:42.601Z,15.60
2022-10-15T18:25:16.745Z,15.60
2022-10-15T18:27:50.889Z,15.60
2022-10-15T18:30:25.005Z,15.60
2022-10-15T18:33:02.428Z,15.50
2022-10-15T18:35:37.742Z,15.50
2022-10-15T18:38:11.935Z,15.60
2022-10-15T18:40:47.244Z,15.40
2022-10-15T18:43:21.513Z,15.40
2022-10-15T18:45:55.596Z,15.20
2022-10-15T18:48:33.018Z,15.30
2022-10-15T18:51:12.446Z,15.30
2022-10-15T18:53:47.688Z,15.20
2022-10-15T18:56:21.603Z,15.20
2022-10-15T18:58:55.679Z,15.10
2022-10-15T19:01:30.546Z,15.10
2022-10-15T19:04:08.322Z,15.10
2022-10-15T19:06:43.655Z,15.10
2022-10-15T19:09:18.452Z,15.00
2022-10-15T19:11:53.870Z,15.20
2022-10-15T19:14:28.582Z,15.00
2022-10-15T19:17:02.681Z,14.90
2022-10-15T19:19:39.287Z,14.90
2022-10-15T19:22:13.698Z,15.00
2022-10-15T19:24:47.828Z,14.90
2022-10-15T19:27:21.507Z,14.80
2022-10-15T19:29:55.865Z,14.80
2022-10-15T19:32:29.625Z,14.80
2022-10-15T19:35:06.939Z,14.80
2022-10-15T19:37:40.591Z,14.70
2022-10-15T19:40:14.611Z,14.70
2022-10-15T19:42:48.556Z,14.90
2022-10-15T19:45:22.655Z,14.70
2022-10-15T19:47:59.950Z,14.60
2022-10-15T19:50:42.771Z,14.60
2022-10-15T19:53:17.818Z,14.50
2022-10-15T19:55:58.372Z,14.50
2022-10-15T19:58:32.726Z,14.50
2022-10-15T20:01:08.150Z,14.50
2022-10-15T20:03:43.154Z,14.40
2022-10-15T20:06:20.612Z,14.40
2022-10-15T20:08:55.407Z,14.40
2022-10-15T20:11:30.015Z,14.40
2022-10-15T20:14:05.058Z,14.40
2022-10-15T20:16:40.039Z,14.30
2022-10-15T20:19:15.786Z,14.30
2022-10-15T20:21:53.187Z,14.40
2022-10-15T20:24:29.605Z,14.30
2022-10-15T20:27:03.666Z,14.20
2022-10-15T20:29:37.612Z,14.20
2022-10-15T20:32:23.405Z,14.20
2022-10-15T20:35:08.512Z,14.20
2022-10-15T20:37:45.331Z,14.10
2022-10-15T20:40:19.927Z,14.10
2022-10-15T20:42:54.661Z,14.10
2022-10-15T20:45:29.933Z,14.10
2022-10-15T20:48:03.579Z,14.10
2022-10-15T20:50:37.922Z,14.00
2022-10-15T20:53:14.257Z,14.00
2022-10-15T20:55:46.563Z,14.00
2022-10-15T20:58:20.681Z,13.90
2022-10-15T21:00:54.753Z,14.00
2022-10-15T21:03:30.162Z,14.00
2022-10-15T21:06:04.704Z,13.90
2022-10-15T21:08:41.228Z,13.90
2022-10-15T21:11:15.524Z,13.90
2022-10-15T21:13:49.859Z,13.90
2022-10-15T21:16:26.006Z,13.80
2022-10-15T21:19:01.792Z,14.00
2022-10-15T21:21:35.516Z,13.70
2022-10-15T21:24:13.084Z,13.70
2022-10-15T21:26:47.809Z,13.60
2022-10-15T21:29:21.571Z,13.70
2022-10-15T21:31:55.559Z,13.70
2022-10-15T21:34:30.274Z,13.50
2022-10-15T21:37:04.518Z,13.50
2022-10-15T21:39:41.134Z,13.70
2022-10-15T21:42:15.526Z,13.40
2022-10-15T21:44:49.609Z,13.40
2022-10-15T21:47:23.509Z,13.30
2022-10-15T21:49:57.545Z,13.40
2022-10-15T21:52:31.576Z,13.30
2022-10-15T21:55:09.410Z,13.30
2022-10-15T21:57:43.633Z,13.30
2022-10-15T22:00:18.481Z,13.30
2022-10-15T22:02:53.332Z,13.30
2022-10-15T22:05:27.590Z,13.60
2022-10-15T22:08:01.487Z,13.30
2022-10-15T22:10:38.164Z,13.30
2022-10-15T22:13:12.522Z,13.30
2022-10-15T22:15:46.511Z,13.30
2022-10-15T22:18:20.603Z,13.30
2022-10-15T22:20:56.514Z,13.60
2022-10-15T22:23:30.527Z,13.30
2022-10-15T22:26:07.207Z,13.30
2022-10-15T22:28:41.671Z,13.30
2022-10-15T22:31:17.164Z,13.30
2022-10-15T22:33:51.610Z,13.40
2022-10-15T22:36:26.392Z,13.60
2022-10-15T22:39:01.829Z,13.40
2022-10-15T22:41:40.161Z,13.30
2022-10-15T22:44:16.244Z,13.40
2022-10-15T22:46:50.856Z,13.40
2022-10-15T22:49:25.699Z,13.20
2022-10-15T22:51:59.543Z,13.40
2022-10-15T22:54:33.529Z,13.40
2022-10-15T22:57:10.256Z,13.50
2022-10-15T22:59:44.823Z,13.40
2022-10-15T23:02:21.303Z,13.50
2022-10-15T23:04:56.460Z,13.60
2022-10-15T23:07:30.566Z,13.30
2022-10-15T23:10:04.668Z,13.50
2022-10-15T23:12:41.945Z,13.30
2022-10-15T23:15:16.039Z,13.20
2022-10-15T23:17:50.817Z,13.20
2022-10-15T23:20:24.856Z,13.20
2022-10-15T23:23:01.008Z,13.30
2022-10-15T23:25:40.071Z,13.50
2022-10-15T23:28:19.906Z,13.20
2022-10-15T23:31:08.046Z,13.20
2022-10-15T23:33:49.041Z,13.20
2022-10-15T23:36:22.701Z,13.20
2022-10-15T23:38:59.769Z,13.20
2022-10-15T23:41:35.889Z,13.40
2022-10-15T23:44:13.136Z,13.20
2022-10-15T23:46:48.132Z,13.40
2022-10-15T23:49:23.983Z,13.40
2022-10-15T23:51:58.891Z,13.20
2022-10-15T23:54:36.684Z,13.20
2022-10-15T23:57:11.570Z,13.10
2022-10-15T23:59:48.768Z,13.10
